createdAt,value
2022-11-14T00:00:29.434Z,42.15
2022-11-14T00:02:59.381Z,40.25
2022-11-14T00:05:28.130Z,40.90
2022-11-14T00:07:54.781Z,39.47
2022-11-14T00:10:22.224Z,38.22
2022-11-14T00:12:48.883Z,38.88
2022-11-14T00:15:15.788Z,39.75
2022-11-14T00:17:42.443Z,39.45
2022-11-14T00:20:10.924Z,38.05
2022-11-14T00:22:37.490Z,35.72
2022-11-14T00:25:04.752Z,35.80
2022-11-14T00:27:31.372Z,39.85
2022-11-14T00:29:57.942Z,36.40
2022-11-14T00:32:24.610Z,39.42
2022-11-14T00:34:51.321Z,38.83
2022-11-14T00:37:18.383Z,39.45
2022-11-14T00:39:44.967Z,36.97
2022-11-14T00:42:11.532Z,34.45
2022-11-14T00:44:38.136Z,35.80
2022-11-14T00:47:04.991Z,37.13
2022-11-14T00:49:31.618Z,37.55
2022-11-14T00:51:58.277Z,36.60
2022-11-14T00:54:26.642Z,37.90
2022-11-14T00:56:53.395Z,34.75
2022-11-14T00:59:20.043Z,34.83
2022-11-14T01:01:46.658Z,37.28
2022-11-14T01:04:13.502Z,36.38
2022-11-14T01:06:40.150Z,36.38
2022-11-14T01:09:06.859Z,37.30
2022-11-14T01:11:33.506Z,36.67
2022-11-14T01:14:00.088Z,35.33
2022-11-14T01:16:26.674Z,35.67
2022-11-14T01:18:53.376Z,35.55
2022-11-14T01:21:19.994Z,38.88
2022-11-14T01:23:46.573Z,37.08
2022-11-14T01:26:14.575Z,36.03
2022-11-14T01:28:41.512Z,34.58
2022-11-14T01:31:15.943Z,34.08
2022-11-14T01:33:43.342Z,36.28
2022-11-14T01:36:11.135Z,36.03
2022-11-14T01:38:38.459Z,35.25
2022-11-14T01:41:05.918Z,31.90
2022-11-14T01:43:34.782Z,32.40
2022-11-14T01:46:05.967Z,31.23
2022-11-14T01:48:44.279Z,34.13
2022-11-14T01:51:16.719Z,35.60
2022-11-14T01:53:45.647Z,33.00
2022-11-14T01:56:15.274Z,32.25
2022-11-14T01:58:46.462Z,33.22
2022-11-14T02:01:13.847Z,31.10
2022-11-14T02:03:44.097Z,32.03
2022-11-14T02:06:14.955Z,33.00
2022-11-14T02:08:42.973Z,34.92
2022-11-14T02:11:13.130Z,33.25
2022-11-14T02:13:39.852Z,29.80
2022-11-14T02:16:07.229Z,32.88
2022-11-14T02:18:34.692Z,29.00
2022-11-14T02:21:01.333Z,30.70
2022-11-14T02:23:30.461Z,31.08
2022-11-14T02:25:57.171Z,29.52
2022-11-14T02:28:24.362Z,29.63
2022-11-14T02:30:51.009Z,31.33
2022-11-14T02:33:17.700Z,30.63
2022-11-14T02:35:44.269Z,29.42
2022-11-14T02:38:11.093Z,33.15
2022-11-14T02:40:37.753Z,28.42
2022-11-14T02:43:04.490Z,30.45
2022-11-14T02:45:31.112Z,29.73
2022-11-14T02:47:57.754Z,31.60
2022-11-14T02:50:24.334Z,30.25
2022-11-14T02:52:52.153Z,28.73
2022-11-14T02:55:19.171Z,32.28
2022-11-14T02:57:46.019Z,30.95
2022-11-14T03:00:15.190Z,30.40
2022-11-14T03:02:42.194Z,27.63
2022-11-14T03:05:09.171Z,30.70
2022-11-14T03:07:35.898Z,30.25
2022-11-14T03:10:02.630Z,30.67
2022-11-14T03:12:30.331Z,28.25
2022-11-14T03:14:56.957Z,28.52
2022-11-14T03:17:24.628Z,27.73
2022-11-14T03:19:51.476Z,30.85
2022-11-14T03:22:18.252Z,29.50
2022-11-14T03:24:44.861Z,33.45
2022-11-14T03:27:11.553Z,30.27
2022-11-14T03:29:38.400Z,29.92
2022-11-14T03:32:05.211Z,31.08
2022-11-14T03:34:32.082Z,28.58
2022-11-14T03:36:58.776Z,31.67
2022-11-14T03:39:25.347Z,30.48
2022-11-14T03:41:52.002Z,31.27
2022-11-14T03:44:18.596Z,32.85
2022-11-14T03:46:45.428Z,33.80
2022-11-14T03:49:12.038Z,33.47
2022-11-14T03:51:39.078Z,34.10
2022-11-14T03:54:05.995Z,34.42
2022-11-14T03:56:34.400Z,33.25
2022-11-14T03:59:01.092Z,33.78
2022-11-14T04:01:29.215Z,32.45
2022-11-14T04:03:56.289Z,32.95
2022-11-14T04:06:23.499Z,32.03
2022-11-14T04:08:52.011Z,32.17
2022-11-14T04:11:19.583Z,33.58
2022-11-14T04:13:46.257Z,33.38
2022-11-14T04:16:12.839Z,36.40
2022-11-14T04:18:39.486Z,33.75
2022-11-14T04:21:06.104Z,31.98
2022-11-14T04:23:32.756Z,31.70
2022-11-14T04:25:59.331Z,32.97
2022-11-14T04:28:25.939Z,34.28
2022-11-14T04:30:52.688Z,33.30
2022-11-14T04:33:19.332Z,32.42
2022-11-14T04:35:46.020Z,35.55
2022-11-14T04:38:12.748Z,32.28
2022-11-14T04:40:39.337Z,32.92
2022-11-14T04:43:06.005Z,34.17
2022-11-14T04:45:32.645Z,33.63
2022-11-14T04:47:59.555Z,32.85
2022-11-14T04:50:26.235Z,31.83
2022-11-14T04:52:53.922Z,35.38
2022-11-14T04:55:20.489Z,30.55
2022-11-14T04:57:47.080Z,32.58
2022-11-14T05:00:14.378Z,34.05
2022-11-14T05:02:40.938Z,34.22
2022-11-14T05:05:07.935Z,32.63
2022-11-14T05:07:37.559Z,32.22
2022-11-14T05:10:04.671Z,32.50
2022-11-14T05:12:31.502Z,34.58
2022-11-14T05:14:58.084Z,33.70
2022-11-14T05:17:24.976Z,33.67
2022-11-14T05:22:32.696Z,35.80
2022-11-14T05:24:59.325Z,33.92
2022-11-14T05:27:29.112Z,34.03
2022-11-14T05:29:55.799Z,32.67
2022-11-14T05:32:22.502Z,35.58
2022-11-14T05:34:49.171Z,34.00
2022-11-14T05:37:36.262Z,37.17
2022-11-14T05:45:33.005Z,36.47
2022-11-14T05:47:59.620Z,36.03
2022-11-14T05:50:26.450Z,37.13
2022-11-14T05:52:53.102Z,38.42
2022-11-14T05:55:24.561Z,34.58
2022-11-14T05:57:51.590Z,36.53
2022-11-14T06:00:18.506Z,33.47
2022-11-14T06:02:46.137Z,34.67
2022-11-14T06:05:12.867Z,38.63
2022-11-14T06:07:39.671Z,34.22
2022-11-14T06:10:07.154Z,38.58
2022-11-14T06:12:37.585Z,34.58
2022-11-14T06:15:08.026Z,37.70
2022-11-14T06:21:11.856Z,39.75
2022-11-14T06:23:45.334Z,35.00
2022-11-14T06:26:32.721Z,37.90
2022-11-14T06:29:00.799Z,38.47
2022-11-14T06:31:27.924Z,36.63
2022-11-14T06:33:54.980Z,39.10
2022-11-14T06:36:22.015Z,37.17
2022-11-14T06:38:48.662Z,39.80
2022-11-14T06:41:18.283Z,36.15
2022-11-14T06:43:47.424Z,36.03
2022-11-14T06:46:58.890Z,39.80
2022-11-14T06:49:26.104Z,37.35
2022-11-14T06:51:52.749Z,39.63
2022-11-14T06:54:20.055Z,39.22
2022-11-14T06:56:46.720Z,38.60
2022-11-14T06:59:14.308Z,35.33
2022-11-14T07:01:40.943Z,36.00
2022-11-14T07:04:09.112Z,37.58
2022-11-14T07:06:35.734Z,37.90
2022-11-14T07:09:17.167Z,35.92
2022-11-14T07:11:46.809Z,37.33
2022-11-14T07:14:13.571Z,35.83
2022-11-14T07:16:40.359Z,38.13
2022-11-14T07:19:09.767Z,41.78
2022-11-14T07:28:30.373Z,35.70
2022-11-14T07:38:50.595Z,37.85
2022-11-14T07:41:20.421Z,37.10
2022-11-14T08:03:04.091Z,35.65
2022-11-14T08:04:37.009Z,37.90
2022-11-14T08:05:30.804Z,36.15
2022-11-14T08:07:57.399Z,36.28
2022-11-14T08:10:24.097Z,35.60
2022-11-14T08:13:17.579Z,37.47
2022-11-14T08:15:45.988Z,36.25
2022-11-14T08:18:12.650Z,38.47
2022-11-14T08:20:39.264Z,35.00
2022-11-14T08:23:09.392Z,36.17
2022-11-14T08:25:36.274Z,37.17
2022-11-14T08:28:03.360Z,35.97
2022-11-14T08:30:30.548Z,38.35
2022-11-14T08:32:57.445Z,33.67
2022-11-14T08:35:24.173Z,33.50
2022-11-14T08:37:50.809Z,35.38
2022-11-14T08:40:17.573Z,36.33
2022-11-14T08:42:44.168Z,35.10
2022-11-14T08:45:11.091Z,32.35
2022-11-14T08:47:37.704Z,32.40
2022-11-14T08:50:04.960Z,36.25
2022-11-14T08:52:31.572Z,32.10
2022-11-14T08:54:58.335Z,31.58
2022-11-14T08:57:24.948Z,31.85
2022-11-14T08:59:52.016Z,32.10
2022-11-14T09:02:18.633Z,30.52
2022-11-14T09:04:45.396Z,31.77
2022-11-14T09:07:12.268Z,32.25
2022-11-14T09:09:39.512Z,31.50
2022-11-14T09:12:06.332Z,28.30
2022-11-14T09:14:32.993Z,31.55
2022-11-14T09:17:04.624Z,28.55
2022-11-14T09:19:32.827Z,31.55
2022-11-14T09:21:59.433Z,30.27
2022-11-14T09:24:26.103Z,29.50
2022-11-14T09:26:56.578Z,30.38
2022-11-14T09:29:23.762Z,30.30
2022-11-14T09:31:51.696Z,29.95
2022-11-14T09:34:18.496Z,27.55
2022-11-14T09:36:46.539Z,31.13
2022-11-14T09:39:13.280Z,28.65
2022-11-14T09:41:58.068Z,28.27
2022-11-14T09:44:43.745Z,29.65
2022-11-14T09:47:20.233Z,29.00
2022-11-14T09:49:51.522Z,30.52
2022-11-14T09:52:47.648Z,29.05
2022-11-14T09:55:20.174Z,27.30
2022-11-14T09:57:47.578Z,29.58
2022-11-14T10:00:20.567Z,28.48
2022-11-14T10:02:59.353Z,29.52
2022-11-14T10:06:02.746Z,28.92
2022-11-14T10:08:41.826Z,28.73
2022-11-14T10:11:16.571Z,29.83
2022-11-14T10:14:15.524Z,32.45
2022-11-14T10:16:49.364Z,28.40
2022-11-14T10:19:43.790Z,29.20
2022-11-14T10:22:40.667Z,29.55
2022-11-14T10:25:22.460Z,29.70
2022-11-14T10:28:09.057Z,31.05
2022-11-14T10:30:45.263Z,31.02
2022-11-14T10:33:32.886Z,31.58
2022-11-14T10:36:11.657Z,29.05
2022-11-14T10:38:54.080Z,30.90
2022-11-14T10:41:50.098Z,30.38
2022-11-14T10:44:14.843Z,33.35
2022-11-14T10:46:52.312Z,29.77
2022-11-14T10:49:22.252Z,29.38
2022-11-14T10:52:01.463Z,31.10
2022-11-14T10:54:56.253Z,29.80
2022-11-14T10:57:23.458Z,28.50
2022-11-14T10:59:56.124Z,27.88
2022-11-14T11:02:23.088Z,27.80
2022-11-14T11:04:49.752Z,30.00
2022-11-14T11:07:43.825Z,24.63
2022-11-14T11:10:40.771Z,25.92
2022-11-14T11:13:13.616Z,23.65
2022-11-14T11:15:41.926Z,26.88
2022-11-14T11:18:34.476Z,27.77
2022-11-14T11:21:05.839Z,25.92
2022-11-14T11:23:33.293Z,25.38
2022-11-14T11:26:11.021Z,28.05
2022-11-14T11:28:37.804Z,23.13
2022-11-14T11:31:07.499Z,25.80
2022-11-14T11:33:38.834Z,26.10
2022-11-14T11:36:12.055Z,26.25
2022-11-14T11:38:39.864Z,26.25
2022-11-14T11:42:07.749Z,27.42
2022-11-14T11:44:29.396Z,28.48
2022-11-14T11:47:00.939Z,25.95
2022-11-14T11:49:30.892Z,25.67
2022-11-14T11:52:05.320Z,25.88
2022-11-14T11:54:57.735Z,25.23
2022-11-14T11:57:31.189Z,25.08
2022-11-14T12:00:23.462Z,25.65
2022-11-14T12:02:52.552Z,28.45
2022-11-14T12:06:02.774Z,28.98
2022-11-14T12:08:46.053Z,26.40
2022-11-14T12:11:20.010Z,25.95
2022-11-14T12:14:01.533Z,27.10
2022-11-14T12:16:40.292Z,25.38
2022-11-14T12:19:13.340Z,26.80
2022-11-14T12:22:27.422Z,26.98
2022-11-14T12:25:22.072Z,26.05
2022-11-14T12:28:03.043Z,23.02
2022-11-14T12:30:31.571Z,23.77
2022-11-14T12:33:09.525Z,24.40
2022-11-14T12:35:37.252Z,23.52
2022-11-14T12:38:13.007Z,22.85
2022-11-14T12:40:42.528Z,24.77
2022-11-14T12:43:37.546Z,24.25
2022-11-14T12:46:09.210Z,21.30
2022-11-14T12:48:44.133Z,21.23
2022-11-14T12:51:46.212Z,19.70
2022-11-14T12:54:45.572Z,22.88
2022-11-14T12:57:41.307Z,21.10
2022-11-14T13:00:09.259Z,20.27
2022-11-14T13:02:56.634Z,24.75
2022-11-14T13:05:47.216Z,22.13
2022-11-14T13:08:28.693Z,23.65
2022-11-14T13:10:55.959Z,23.95
2022-11-14T13:13:42.099Z,22.35
2022-11-14T13:16:45.104Z,22.00
2022-11-14T13:19:30.537Z,23.98
2022-11-14T13:22:12.671Z,22.58
2022-11-14T13:25:11.386Z,23.80
2022-11-14T13:28:07.367Z,22.48
2022-11-14T13:31:06.831Z,23.52
2022-11-14T13:33:51.050Z,23.90
2022-11-14T13:36:32.328Z,21.48
2022-11-14T13:39:18.011Z,21.95
2022-11-14T13:41:59.844Z,22.38
2022-11-14T13:44:44.698Z,22.90
2022-11-14T13:47:18.410Z,21.08
2022-11-14T13:50:06.697Z,22.10
2022-11-14T13:52:35.403Z,22.70
2022-11-14T13:55:02.779Z,24.73
2022-11-14T13:57:42.373Z,24.80
2022-11-14T14:00:20.694Z,24.13
2022-11-14T14:03:18.694Z,24.50
2022-11-14T14:05:45.273Z,24.08
2022-11-14T14:08:21.049Z,24.27
2022-11-14T14:11:14.499Z,23.33
2022-11-14T14:14:16.835Z,22.65
2022-11-14T14:17:09.935Z,19.98
2022-11-14T14:20:01.234Z,22.75
2022-11-14T14:22:37.549Z,20.80
2022-11-14T14:25:43.640Z,20.67
2022-11-14T14:28:29.306Z,20.10
2022-11-14T14:31:12.161Z,21.20
2022-11-14T14:33:47.163Z,21.27
2022-11-14T14:36:26.222Z,20.08
2022-11-14T14:39:17.051Z,19.60
2022-11-14T14:41:43.974Z,20.85
2022-11-14T14:44:19.308Z,21.58
2022-11-14T14:46:46.022Z,21.88
2022-11-14T14:49:34.732Z,23.55
2022-11-14T14:52:01.819Z,22.60
2022-11-14T14:54:29.734Z,21.98
2022-11-14T14:57:00.338Z,22.42
2022-11-14T14:59:29.626Z,25.02
2022-11-14T15:01:58.242Z,21.35
2022-11-14T15:07:04.888Z,23.25
2022-11-14T15:09:31.567Z,23.80
2022-11-14T15:12:01.291Z,24.65
2022-11-14T15:14:30.764Z,23.73
2022-11-14T15:16:59.284Z,25.30
2022-11-14T15:19:35.849Z,27.20
2022-11-14T15:22:04.565Z,26.35
2022-11-14T15:24:31.820Z,28.73
2022-11-14T15:26:58.602Z,27.30
2022-11-14T15:29:27.549Z,27.73
2022-11-14T15:32:04.900Z,28.10
2022-11-14T15:34:34.348Z,30.40
2022-11-14T15:37:10.278Z,29.95
2022-11-14T15:39:38.061Z,32.58
2022-11-14T15:42:23.909Z,31.65
2022-11-14T15:44:51.303Z,34.55
2022-11-14T15:47:39.024Z,34.30
2022-11-14T15:50:25.195Z,33.67
2022-11-14T15:53:17.998Z,34.92
2022-11-14T15:55:46.122Z,34.83
2022-11-14T15:58:27.899Z,37.15
2022-11-14T16:00:55.802Z,40.22
2022-11-14T16:03:23.177Z,38.15
2022-11-14T16:05:49.773Z,40.40
2022-11-14T16:08:16.328Z,42.00
2022-11-14T16:10:43.145Z,39.70
2022-11-14T16:13:11.149Z,41.70
2022-11-14T16:15:38.032Z,44.33
2022-11-14T16:18:05.489Z,48.03
2022-11-14T16:20:37.855Z,47.85
2022-11-14T16:23:05.319Z,45.20
2022-11-14T16:25:32.632Z,44.53
2022-11-14T16:27:59.204Z,41.50
2022-11-14T16:30:26.261Z,43.73
2022-11-14T16:32:52.913Z,46.85
2022-11-14T16:35:21.788Z,51.43
2022-11-14T16:37:48.965Z,49.77
2022-11-14T16:40:27.887Z,55.83
2022-11-14T16:42:56.463Z,48.27
2022-11-14T16:45:50.963Z,48.40
2022-11-14T16:48:43.756Z,50.88
2022-11-14T16:51:47.035Z,53.53
2022-11-14T16:54:07.096Z,55.00
2022-11-14T16:56:37.684Z,57.17
2022-11-14T16:59:07.820Z,55.03
2022-11-14T17:01:35.174Z,55.87
2022-11-14T17:04:03.164Z,54.57
2022-11-14T17:06:30.479Z,57.78
2022-11-14T17:08:59.080Z,55.30
2022-11-14T17:11:29.525Z,57.60
2022-11-14T17:13:56.947Z,57.70
2022-11-14T17:16:24.323Z,60.38
2022-11-14T17:18:52.773Z,63.53
2022-11-14T17:21:19.992Z,58.87
2022-11-14T17:23:46.834Z,62.27
2022-11-14T17:26:14.225Z,60.17
2022-11-14T17:28:43.093Z,62.50
2022-11-14T17:31:10.258Z,58.70
2022-11-14T17:33:37.650Z,68.63
2022-11-14T17:36:09.648Z,65.10
2022-11-14T17:38:37.794Z,69.32
2022-11-14T17:41:07.478Z,72.13
2022-11-14T17:43:38.992Z,65.00
2022-11-14T17:46:11.142Z,71.50
2022-11-14T17:48:42.370Z,66.80
2022-11-14T17:51:14.540Z,71.10
2022-11-14T17:53:41.613Z,71.33
2022-11-14T17:56:14.099Z,70.33
2022-11-14T17:58:40.762Z,74.17
2022-11-14T18:01:16.297Z,77.17
2022-11-14T18:03:43.133Z,71.50
2022-11-14T18:06:15.378Z,77.30
2022-11-14T18:08:42.799Z,77.80
2022-11-14T18:11:11.470Z,83.30
2022-11-14T18:13:39.346Z,81.80
2022-11-14T18:16:12.867Z,76.03
2022-11-14T18:18:40.013Z,78.90
2022-11-14T18:21:12.777Z,80.67
2022-11-14T18:23:39.560Z,84.63
2022-11-14T18:26:11.026Z,82.10
2022-11-14T18:28:37.810Z,85.73
2022-11-14T18:31:07.341Z,90.43
2022-11-14T18:33:35.813Z,86.30
2022-11-14T18:36:03.739Z,86.97
2022-11-14T18:38:32.866Z,90.43
2022-11-14T18:41:01.079Z,88.40
2022-11-14T18:43:36.008Z,93.50
2022-11-14T18:46:23.537Z,94.47
2022-11-14T18:48:54.445Z,94.20
2022-11-14T18:51:28.580Z,93.90
2022-11-14T18:53:58.052Z,98.40
2022-11-14T18:56:25.599Z,103.97
2022-11-14T18:58:54.794Z,100.10
2022-11-14T19:01:29.363Z,97.63
2022-11-14T19:04:01.965Z,95.93
2022-11-14T19:06:31.097Z,100.53
2022-11-14T19:09:09.753Z,102.63
2022-11-14T19:12:23.525Z,99.03
2022-11-14T19:14:57.306Z,97.90
2022-11-14T19:17:28.551Z,99.30
2022-11-14T19:20:07.766Z,100.20
2022-11-14T19:22:37.878Z,98.97
2022-11-14T19:25:05.941Z,106.33
2022-11-14T19:27:33.581Z,99.87
2022-11-14T19:30:09.241Z,100.50
2022-11-14T19:32:39.016Z,104.60
2022-11-14T19:35:06.794Z,104.87
2022-11-14T19:37:34.110Z,101.63
2022-11-14T19:40:04.923Z,101.50
2022-11-14T19:42:35.366Z,102.17
2022-11-14T19:45:03.043Z,91.17
2022-11-14T19:47:34.167Z,98.57
2022-11-14T19:50:04.803Z,94.73
2022-11-14T19:52:35.187Z,100.57
2022-11-14T19:55:08.699Z,102.97
2022-11-14T19:57:36.652Z,93.63
2022-11-14T20:00:15.992Z,100.63
2022-11-14T20:02:48.731Z,95.03
2022-11-14T20:05:15.485Z,98.80
2022-11-14T20:07:42.104Z,93.57
2022-11-14T20:10:09.269Z,97.93
2022-11-14T20:12:35.903Z,98.00
2022-11-14T20:15:02.556Z,94.67
2022-11-14T20:17:29.123Z,99.27
2022-11-14T20:19:55.700Z,95.53
2022-11-14T20:22:22.276Z,100.20
2022-11-14T20:24:49.004Z,90.63
2022-11-14T20:27:15.593Z,100.10
2022-11-14T20:29:42.165Z,103.70
2022-11-14T20:32:13.059Z,101.27
2022-11-14T20:34:42.293Z,93.80
2022-11-14T20:37:11.690Z,100.93
2022-11-14T20:39:38.723Z,100.43
2022-11-14T20:42:05.328Z,101.10
2022-11-14T20:44:31.912Z,100.10
2022-11-14T20:46:58.493Z,100.67
2022-11-14T20:49:25.113Z,95.17
2022-11-14T20:51:51.700Z,96.33
2022-11-14T20:54:18.269Z,104.90
2022-11-14T20:56:59.386Z,98.57
2022-11-14T21:02:15.470Z,97.00
2022-11-14T21:04:46.539Z,98.53
2022-11-14T21:07:14.574Z,95.33
2022-11-14T21:09:41.676Z,102.23
2022-11-14T21:12:08.918Z,97.97
2022-11-14T21:14:36.165Z,101.90
2022-11-14T21:17:02.833Z,92.77
2022-11-14T21:19:29.462Z,93.13
2022-11-14T21:21:56.064Z,95.27
2022-11-14T21:24:22.711Z,97.87
2022-11-14T21:26:49.320Z,102.67
2022-11-14T21:29:15.929Z,98.33
2022-11-14T21:31:44.944Z,97.23
2022-11-14T21:34:15.316Z,98.70
2022-11-14T21:36:45.597Z,94.83
2022-11-14T21:39:15.815Z,91.33
2022-11-14T21:41:44.073Z,96.57
2022-11-14T21:44:16.276Z,93.83
2022-11-14T21:46:45.835Z,90.43
2022-11-14T21:49:12.954Z,92.87
2022-11-14T21:51:40.221Z,91.60
2022-11-14T21:54:10.026Z,88.93
2022-11-14T21:56:37.886Z,89.00
2022-11-14T21:59:16.318Z,84.13
2022-11-14T22:02:08.091Z,84.27
2022-11-14T22:04:40.505Z,79.50
2022-11-14T22:07:10.870Z,81.53
2022-11-14T22:09:45.450Z,78.00
2022-11-14T22:15:27.060Z,83.78
2022-11-14T22:17:55.030Z,80.18
2022-11-14T22:20:52.643Z,84.18
2022-11-14T22:23:20.459Z,75.43
2022-11-14T22:26:01.126Z,79.03
2022-11-14T22:28:32.984Z,75.32
2022-11-14T22:31:26.758Z,75.70
2022-11-14T22:33:58.824Z,77.00
2022-11-14T22:36:32.355Z,73.88
2022-11-14T22:39:04.307Z,72.75
2022-11-14T22:41:33.932Z,70.80
2022-11-14T22:44:05.142Z,73.22
2022-11-14T22:46:40.068Z,69.80
2022-11-14T22:49:19.724Z,66.55
2022-11-14T22:51:50.667Z,66.40
2022-11-14T22:54:23.840Z,66.93
2022-11-14T22:56:51.199Z,67.03
2022-11-14T22:59:24.615Z,67.18
2022-11-14T23:01:55.514Z,66.75
2022-11-14T23:04:25.476Z,66.55
2022-11-14T23:07:02.252Z,63.13
2022-11-14T23:09:30.272Z,57.33
2022-11-14T23:11:57.740Z,60.92
2022-11-14T23:14:25.231Z,64.05
2022-11-14T23:16:53.176Z,60.85
2022-11-14T23:19:20.558Z,59.92
2022-11-14T23:21:48.411Z,58.28
2022-11-14T23:24:18.743Z,58.47
2022-11-14T23:26:46.061Z,58.83
2022-11-14T23:29:14.959Z,61.30
2022-11-14T23:31:42.516Z,57.20
2022-11-14T23:34:09.765Z,62.40
2022-11-14T23:36:40.200Z,61.45
2022-11-14T23:39:07.681Z,62.35
2022-11-14T23:41:35.107Z,59.20
2022-11-14T23:44:02.171Z,62.35
2022-11-14T23:46:29.424Z,60.08
2022-11-14T23:48:56.454Z,68.10
2022-11-14T23:51:23.701Z,64.90
2022-11-14T23:53:51.992Z,65.28
2022-11-14T23:56:19.031Z,64.70
2022-11-14T23:58:45.975Z,63.53
